GB-0204 weather

Plaistows Airfield
England, United Kingdom

Public forecast

Using degrees Celsius for public forecast. Weather courtesy of forecast.io.

Closest aviation weather report (METAR) to Plaistows Airfield

Closest report is London Luton Airport, 8.8 nm (16.2 km) N. Retrieved 2020/02/26 03:50 UTC (29 minutes ago):

EGGW 260350Z AUTO 28017KT 9999 NCD 01/M01 Q0997

Closest aviation forecast (TAF) to Plaistows Airfield

Closest forecast is London Luton Airport, 8.8 nm (16.2 km) N. Retrieved 2020-02-26 00:00 UTC (4 hours ago):

TAF EGGW 252303Z 2600/2624 28012KT 9999 SCT030 PROB30 TEMPO 2600/2609 29016G26KT 3000 -SHSN BKN006 PROB40 TEMPO 2609/2618 29017G27KT 5000 SHRA SHGS BKN010 BECMG 2621/2624 21006KT